Galesburg, IL

10:37 PM CST on December 04, 2016 (GMT -0600)
N9VPV | | Change Station

Elev 777 ft 40.95 °N, 90.39 °W | Updated 2 minutes ago

Overcast
Overcast
33.0 °F
Feels Like 27 °F
N
6.0
Wind Variable Wind from West
Gusts 7.0 mph

Today
High -- | Low -- °F
--% Chance of Precip.
Yesterday
High -- | Low -- °F
Precip. -- in
Pressure 29.97 in
Visibility 10.0 miles
Clouds Overcast 700 ft
Windchill 27 °F
Dew Point 31 °F
Humidity 93%
Rainfall 0.07 in
Snow Depth Not available.
7:10 AM 4:33 PM
Waxing Crescent, 28% visible
METAR KGBG 050415Z AUTO 24006KT 10SM OVC007 01/00 A2997 RMK AO2 T00060000
Pressure 29.97 in
Visibility 10.0 miles
Clouds Overcast 700 ft
Windchill 27 °F
Dew Point 31 °F
Humidity 93%
Rainfall 0.07 in
Snow Depth Not available.
7:10 AM 4:33 PM
Waxing Crescent, 28% visible
METAR KGBG 050415Z AUTO 24006KT 10SM OVC007 01/00 A2997 RMK AO2 T00060000

10-Day Weather Forecast

Almanac

Astronomy

Dec. 04, 2016 Rise Set
Actual Time
Civil Twilight
Nautical Twilight
Astronomical Twilight
Moon
Length of Visible Light
Length of Day
Tomorrow will be .
, % of the Moon is Illuminated

Today's Extremes

State Highs State Lows

Community

WunderPhotos

Upload Photos

1,955,763 photos uploaded!

WunderBlog® & News

Nearby

Air Quality

  Air Quality AQ Index Pollutant
Not available.

Snow Depth

Station Depth Elevation

Earthquake Activity

City Distance Mag. Time & Date
Minimum magnitude displayed is 2.5.

Coastal Water Temperatures

Place Temperature

Stations

Nearby Weather Stations

Station Location Temp. Windchill Dew Point Humidity Wind Precip. Elev Updated Type
                   

Watches & Warnings

There are currently no watches in effect.